Time;durP1;ratioP1;P1;durP2;ratioP2;P2;SDS_P1;SDS_P2;PMS_P1;PMS_P2;Temp;Humidity;BMP_temperature;BMP_pressure;BME280_temperature;BME280_humidity;BME280_pressure;Samples;Min_cycle;Max_cycle;Signal;HPM_P1;HPM_P2
2022/06/13 00:00:47;;;;;;;5.90;4.18;;;;;;;;;;5011939;28;20108;-70
2022/06/13 00:03:13;;;;;;;7.07;4.50;;;;;;;;;;5012354;28;20037;-69
2022/06/13 00:05:39;;;;;;;5.95;4.50;;;;;;;;;;5015087;28;20018;-71
2022/06/13 00:08:05;;;;;;;6.38;4.28;;;;;;;;;;5015991;28;20029;-69
2022/06/13 00:10:31;;;;;;;5.50;4.50;;;;;;;;;;5015932;28;20045;-72
2022/06/13 00:12:57;;;;;;;5.68;4.13;;;;;;;;;;5015673;28;20034;-71
2022/06/13 00:15:23;;;;;;;4.75;3.78;;;;;;;;;;5015821;28;20032;-70
2022/06/13 00:17:49;;;;;;;5.57;4.18;;;;;;;;;;5015361;28;20028;-72
2022/06/13 00:20:15;;;;;;;6.65;4.15;;;;;;;;;;5015598;28;20026;-72
2022/06/13 00:22:41;;;;;;;6.88;4.30;;;;;;;;;;5015863;28;20033;-72
2022/06/13 00:25:09;;;;;;;7.50;3.72;;;;;;;;;;5015454;28;20021;-70
2022/06/13 00:27:35;;;;;;;6.78;4.80;;;;;;;;;;5015573;28;20022;-72
2022/06/13 00:30:02;;;;;;;9.82;3.67;;;;;;;;;;5015691;28;20392;-71
2022/06/13 00:32:28;;;;;;;6.65;4.45;;;;;;;;;;5015108;28;20381;-70
2022/06/13 00:34:55;;;;;;;4.15;3.72;;;;;;;;;;5033646;28;20049;-69
2022/06/13 00:37:21;;;;;;;5.78;4.00;;;;;;;;;;5035211;28;20101;-72
2022/06/13 00:39:47;;;;;;;4.28;3.88;;;;;;;;;;5034725;28;20101;-72
2022/06/13 00:42:18;;;;;;;3.40;3.10;;;;;;;;;;5035014;28;20391;-74
2022/06/13 00:45:02;;;;;;;4.70;3.05;;;;;;;;;;5034801;28;20025;-72
2022/06/13 00:47:29;;;;;;;5.05;3.33;;;;;;;;;;5034462;28;20024;-70
2022/06/13 00:49:55;;;;;;;3.67;3.10;;;;;;;;;;5034576;28;20053;-71
2022/06/13 00:52:24;;;;;;;5.00;3.40;;;;;;;;;;5034366;28;20033;-71
2022/06/13 00:54:50;;;;;;;4.25;3.75;;;;;;;;;;5034775;28;20025;-71
2022/06/13 00:57:18;;;;;;;6.15;3.60;;;;;;;;;;5034721;28;20026;-70
2022/06/13 00:59:45;;;;;;;4.32;3.53;;;;;;;;;;5034199;28;20017;-71
2022/06/13 01:02:11;;;;;;;3.95;3.55;;;;;;;;;;5034158;28;20554;-71
2022/06/13 01:04:39;;;;;;;6.03;3.38;;;;;;;;;;5034135;28;20084;-71
2022/06/13 01:07:06;;;;;;;8.70;3.65;;;;;;;;;;5034161;28;20040;-72
2022/06/13 01:12:22;;;;;;;6.30;3.63;;;;;;;;;;4972679;28;20069;-70
2022/06/13 01:14:48;;;;;;;4.13;3.22;;;;;;;;;;4972978;28;20118;-71
2022/06/13 01:17:20;;;;;;;6.20;3.60;;;;;;;;;;4971994;28;20652;-72
2022/06/13 01:20:01;;;;;;;5.85;3.78;;;;;;;;;;4973013;28;20049;-70
2022/06/13 01:22:27;;;;;;;6.93;4.13;;;;;;;;;;4972795;28;20074;-71
2022/06/13 01:24:59;;;;;;;7.50;5.55;;;;;;;;;;4972856;28;20052;-71
2022/06/13 01:27:44;;;;;;;7.38;4.57;;;;;;;;;;4973107;28;20027;-72
2022/06/13 01:30:10;;;;;;;7.72;4.97;;;;;;;;;;4973189;28;20097;-72
2022/06/13 01:32:42;;;;;;;7.13;4.47;;;;;;;;;;4972910;28;20260;-70
2022/06/13 01:35:34;;;;;;;6.40;3.90;;;;;;;;;;4973091;28;20043;-72
2022/06/13 01:38:16;;;;;;;5.28;3.40;;;;;;;;;;4971340;28;20039;-70
2022/06/13 01:41:09;;;;;;;6.70;3.78;;;;;;;;;;4973075;28;20513;-70
2022/06/13 01:43:43;;;;;;;6.45;4.57;;;;;;;;;;4972989;28;20035;-70
2022/06/13 01:46:32;;;;;;;10.38;7.28;;;589.50;2329.60;;;;;;4972608;28;20090;-73
2022/06/13 01:49:17;;;;;;;6.05;5.07;;;589.40;2355.20;;;;;;4940772;29;20493;-73
2022/06/13 01:52:04;;;;;;;6.60;4.80;;;589.40;2355.20;;;;;;4953584;29;20150;-73
2022/06/13 01:55:05;;;;;;;3.72;3.42;;;589.50;2355.20;;;;;;4953285;29;20039;-74
2022/06/13 01:57:37;;;;;;;5.55;3.90;;;;;;;;;;4952303;29;20031;-72
2022/06/13 02:00:27;;;;;;;5.82;4.82;;;;;;;;;;4952978;29;20122;-71
2022/06/13 02:03:11;;;;;;;7.20;4.43;;;;;;;;;;4952863;29;20137;-72
2022/06/13 02:05:42;;;;;;;7.40;5.07;;;;;;;;;;4936805;29;20038;-71
2022/06/13 02:08:29;;;;;;;4.77;4.17;;;;;;;;;;4952769;29;20038;-71
2022/06/13 02:11:01;;;;;;;5.78;5.03;;;;;;;;;;4952785;29;20031;-70
2022/06/13 02:13:34;;;;;;;8.55;5.20;;;;;;;;;;4952718;29;20054;-72
2022/06/13 02:16:02;;;;;;;6.03;5.43;;;;;;;;;;4952474;29;20051;-72
2022/06/13 02:18:32;;;;;;;7.95;4.75;;;;;;;;;;4952577;29;20031;-71
2022/06/13 02:21:03;;;;;;;7.70;5.00;;;;;;;;;;4952623;28;20027;-72
2022/06/13 02:23:31;;;;;;;8.38;4.55;;;;;;;;;;4952582;29;20071;-71
2022/06/13 02:26:02;;;;;;;5.70;3.97;;;;;;;;;;4989984;28;20116;-70
2022/06/13 02:28:28;;;;;;;;;;;;;;;;;;5033063;28;20022;-72
2022/06/13 02:31:00;;;;;;;6.00;4.13;;;;;;;;;;5032710;28;19996;-71
2022/06/13 02:33:36;;;;;;;5.38;4.00;;;;;;;;;;5032336;28;20056;-71
2022/06/13 02:36:08;;;;;;;5.30;4.07;;;;;;;;;;5032648;28;20021;-72
2022/06/13 02:38:39;;;;;;;7.28;3.78;;;;;;;;;;5032488;28;20140;-72
2022/06/13 02:41:08;;;;;;;5.80;3.47;;;;;;;;;;5032712;28;20030;-72
2022/06/13 02:43:36;;;;;;;4.97;3.60;;;;;;;;;;5032427;28;20025;-71
2022/06/13 02:46:12;;;;;;;6.93;3.67;;;;;;;;;;5032400;28;20029;-72
2022/06/13 02:48:46;;;;;;;6.18;3.55;;;;;;;;;;5032685;28;20029;-72
2022/06/13 02:51:23;;;;;;;6.63;3.72;;;;;;;;;;5032760;28;20025;-72
2022/06/13 02:53:53;;;;;;;7.72;3.92;;;;;;;;;;5032554;28;20033;-73
2022/06/13 02:59:40;;;;;;;6.82;3.65;;;;;;;;;;5032550;28;20040;-74
2022/06/13 03:02:08;;;;;;;10.48;4.45;;;;;;;;;;5032451;28;20029;-71
2022/06/13 03:04:41;;;;;;;6.18;3.90;;;;;;;;;;5032497;28;20028;-72
2022/06/13 03:07:07;;;;;;;7.18;3.97;;;;;;;;;;5015188;28;20029;-72
2022/06/13 03:09:35;;;;;;;6.47;4.90;;;;;;;;;;5032805;28;20021;-71
2022/06/13 03:12:08;;;;;;;7.78;5.15;;;;;;;;;;5032295;28;20486;-71
2022/06/13 03:14:40;;;;;;;6.05;3.67;;;;;;;;;;5032206;28;20079;-71
2022/06/13 03:17:12;;;;;;;5.63;3.70;;;;;;;;;;5032109;28;20108;-71
2022/06/13 03:19:44;;;;;;;4.07;3.67;;;;;;;;;;5032118;28;20075;-71
2022/06/13 03:22:15;;;;;;;5.85;4.10;;;;;;;;;;5031979;28;20602;-70
2022/06/13 03:25:07;;;;;;;8.85;4.65;;;;;;;;;;5031861;28;20053;-69
2022/06/13 03:27:37;;;;;;;8.05;4.75;;;;;;;;;;4951592;28;20035;-70
2022/06/13 03:30:08;;;;;;;13.77;4.70;;;;;;;;;;4951661;29;20035;-70
2022/06/13 03:32:37;;;;;;;6.68;4.15;;;;;;;;;;4951448;29;20067;-71
2022/06/13 03:35:05;;;;;;;9.32;4.10;;;;;;;;;;4951593;28;20111;-70
2022/06/13 03:37:46;;;;;;;9.48;4.18;;;;;;;;;;4951657;28;20035;-71
2022/06/13 03:40:17;;;;;;;11.00;4.07;;;;;;;;;;4953913;28;20051;-72
2022/06/13 03:42:43;;;;;;;;;;;;;;;;;;4955903;29;20155;-72
2022/06/13 03:45:21;;;;;;;8.88;4.13;;;;;;;;;;4955352;29;19907;-70
2022/06/13 03:47:51;;;;;;;8.07;4.25;;;;;;;;;;4955198;28;20524;-70
2022/06/13 03:50:36;;;;;;;7.82;4.20;;;;;;;;;;4974677;28;20440;-70
2022/06/13 03:53:05;;;;;;;5.72;3.95;;;;;;;;;;4974575;28;20600;-70
2022/06/13 03:55:35;;;;;;;5.18;3.42;;;;;;;;;;4974636;28;20030;-71
2022/06/13 03:58:07;;;;;;;7.63;4.22;;;;;;;;;;4974529;28;20041;-70
2022/06/13 04:00:38;;;;;;;8.07;4.22;;;;;;;;;;4974378;28;20142;-71
2022/06/13 04:03:05;;;;;;;7.35;3.78;;;;;;;;;;4974410;28;20039;-72
2022/06/13 04:05:37;;;;;;;7.85;4.22;;;;;;;;;;5031504;28;20041;-69
2022/06/13 04:08:04;;;;;;;6.88;3.80;;;;;;;;;;5018069;28;20463;-71
2022/06/13 04:10:33;;;;;;;8.63;4.00;;;;;;;;;;5035508;28;20483;-68
2022/06/13 04:13:28;;;;;;;7.45;3.92;;;;;;;;;;5034947;28;20034;-71
2022/06/13 04:16:04;;;;;;;6.47;5.03;;;;;;;;;;5017847;28;20029;-73
2022/06/13 04:19:03;;;;;;;7.93;4.00;;;;;;;;;;5035155;28;20104;-71
2022/06/13 04:21:37;;;;;;;6.88;3.88;;;;;;;;;;4954754;29;20039;-71
2022/06/13 04:24:12;;;;;;;5.15;3.70;;;;;;;;;;4954939;29;20502;-72
2022/06/13 04:26:38;;;;;;;9.20;4.43;;;;;;;;;;4945698;28;20051;-72
2022/06/13 04:29:10;;;;;;;9.30;4.43;;;;;;;;;;4935500;29;20023;-72
2022/06/13 04:31:36;;;;;;;24.02;5.65;;;;;;;;;;4935420;29;20188;-72
2022/06/13 04:34:05;;;;;;;5.82;3.95;;;;;;;;;;4934908;29;20063;-73
2022/06/13 04:36:32;;;;;;;6.07;4.20;;;;;;;;;;4935232;29;20498;-71
2022/06/13 04:39:00;;;;;;;8.30;4.07;;;;;;;;;;4934513;29;20047;-77
2022/06/13 04:41:31;;;;;;;23.75;5.57;;;;;;;;;;4934230;29;20036;-74
2022/06/13 04:43:58;;;;;;;7.30;4.03;;;;;;;;;;4932926;29;20051;-74
2022/06/13 04:46:25;;;;;;;20.98;4.93;;;;;;;;;;4931294;29;20550;-74
2022/06/13 04:48:53;;;;;;;10.90;4.68;;;;;;;;;;4934336;29;20110;-73
2022/06/13 04:51:26;;;;;;;13.23;4.85;;;589.00;2432.00;;;;;;4934491;29;20036;-73
2022/06/13 04:53:56;;;;;;;10.77;5.05;;;588.90;2432.00;;;;;;4932547;29;20043;-73
2022/06/13 04:56:23;;;;;;;6.53;4.57;;;589.00;2432.00;;;;;;4952756;28;20555;-75
2022/06/13 04:58:52;;;;;;;11.30;4.05;;;589.00;2432.00;;;;;;5014681;28;20188;-74
2022/06/13 05:01:21;;;;;;;5.78;3.80;;;589.00;2432.00;;;;;;5014259;28;20040;-73
2022/06/13 05:03:48;;;;;;;15.07;4.90;;;589.20;2432.00;;;;;;5014889;28;20522;-73
2022/06/13 05:06:20;;;;;;;14.05;4.97;;;589.20;2432.00;;;;;;5013464;28;20030;-73
2022/06/13 05:08:56;;;;;;;10.73;4.95;;;589.20;2432.00;;;;;;5015043;28;20469;-73
2022/06/13 05:11:46;;;;;;;10.88;5.60;;;589.20;2432.00;;;;;;5014909;28;20072;-73
2022/06/13 05:14:16;;;;;;;8.98;4.45;;;;;;;;;;5014765;28;20034;-73
2022/06/13 05:16:45;;;;;;;8.32;3.90;;;;;;;;;;5014647;28;20519;-73
2022/06/13 05:19:17;;;;;;;11.98;4.35;;;;;;;;;;4997253;28;20038;-74
2022/06/13 05:21:55;;;;;;;5.22;4.15;;;;;;;;;;5014732;28;20457;-73
2022/06/13 05:24:21;;;;;;;5.78;3.70;;;;;;;;;;5014403;28;20033;-73
2022/06/13 05:26:47;;;;;;;11.57;3.78;;;;;;;;;;5014652;28;20021;-73
2022/06/13 05:29:13;;;;;;;25.27;6.03;;;;;;;;;;5014663;28;20072;-73
2022/06/13 05:31:40;;;;;;;7.70;4.10;;;;;;;;;;5014604;28;20026;-73
2022/06/13 05:34:06;;;;;;;17.08;4.95;;;;;;;;;;5014337;28;20054;-73
2022/06/13 05:36:33;;;;;;;6.53;3.88;;;;;;;;;;5014462;28;20026;-73
2022/06/13 05:39:00;;;;;;;8.35;4.05;;;;;;;;;;5014264;28;20484;-73
2022/06/13 05:41:26;;;;;;;10.57;4.60;;;;;;;;;;5014226;28;20469;-74
2022/06/13 05:43:52;;;;;;;7.38;4.22;;;;;;;;;;5014365;28;20468;-73
2022/06/13 05:46:21;;;;;;;9.88;4.60;;;;;;;;;;5014345;28;20029;-74
2022/06/13 05:48:50;;;;;;;12.00;4.50;;;;;;;;;;5014187;28;20034;-73
2022/06/13 05:51:16;;;;;;;9.80;4.28;;;;;;;;;;5014183;28;20556;-74
2022/06/13 05:53:42;;;;;;;5.75;3.60;;;;;;;;;;5014387;28;20041;-74
2022/06/13 05:56:11;;;;;;;9.80;3.45;;;;;;;;;;5014089;28;20030;-73
2022/06/13 05:58:37;;;;;;;5.88;3.78;;;;;;;;;;5013960;28;20408;-73
2022/06/13 06:01:03;;;;;;;5.03;3.65;;;;;;;;;;5013979;28;20022;-74
2022/06/13 06:03:30;;;;;;;10.35;4.10;;;;;;;;;;5013442;28;20036;-74
2022/06/13 06:05:56;;;;;;;13.25;4.45;;;;;;;;;;5013837;28;20499;-73
2022/06/13 06:08:26;;;;;;;13.90;4.55;;;;;;;;;;5013847;28;20025;-74
2022/06/13 06:10:54;;;;;;;11.07;4.18;;;;;;;;;;5013818;28;20029;-74
2022/06/13 06:13:20;;;;;;;10.98;4.38;;;;;;;;;;5013876;28;20124;-73
2022/06/13 06:15:47;;;;;;;8.90;5.13;;;;;;;;;;5013660;28;20026;-73
2022/06/13 06:18:14;;;;;;;5.72;4.50;;;;;;;;;;5013667;28;20029;-73
2022/06/13 06:20:41;;;;;;;5.70;3.72;;;;;;;;;;5013753;28;20021;-75
2022/06/13 06:23:07;;;;;;;9.05;4.00;;;;;;;;;;5014020;28;20030;-73
2022/06/13 06:25:34;;;;;;;8.48;5.00;;;;;;;;;;5013592;28;20115;-73
2022/06/13 06:28:01;;;;;;;7.45;3.85;;;;;;;;;;5013574;28;20111;-73
2022/06/13 06:30:27;;;;;;;5.05;4.32;;;;;;;;;;5013541;28;20104;-73
2022/06/13 06:32:55;;;;;;;9.90;4.10;;;;;;;;;;5013185;28;20109;-73
2022/06/13 06:35:21;;;;;;;6.20;3.60;;;;;;;;;;5013448;28;20034;-73
2022/06/13 06:37:50;;;;;;;5.68;4.25;;;;;;;;;;5013346;28;20025;-72
2022/06/13 06:40:17;;;;;;;4.25;3.25;;;;;;;;;;5013637;28;20415;-71
2022/06/13 06:42:43;;;;;;;11.35;4.72;;;;;;;;;;5013396;28;20026;-72
2022/06/13 06:45:10;;;;;;;7.47;3.60;;;;;;;;;;5013220;28;20018;-73
2022/06/13 06:47:36;;;;;;;14.75;4.47;;;;;;;;;;5013318;28;20034;-72
2022/06/13 06:50:03;;;;;;;6.22;4.13;;;;;;;;;;5013351;28;20045;-72
2022/06/13 06:52:29;;;;;;;8.52;3.65;;;;;;;;;;4995319;28;20042;-72
2022/06/13 07:00:25;;;;;;;4.93;3.75;;;;;;;;;;5013459;28;20117;-72
2022/06/13 07:02:51;;;;;;;5.30;3.63;;;;;;;;;;5013339;28;20033;-73
2022/06/13 07:05:17;;;;;;;3.97;3.13;;;;;;;;;;5012921;28;20060;-72
2022/06/13 07:07:43;;;;;;;9.63;3.92;;;;;;;;;;5013049;28;20037;-72
2022/06/13 07:10:13;;;;;;;4.40;3.70;;;;;;;;;;5013014;28;20507;-72
2022/06/13 07:12:40;;;;;;;4.80;3.35;;;;;;;;;;5012932;28;20037;-72
2022/06/13 07:15:07;;;;;;;5.43;3.40;;;;;;;;;;5014978;28;20476;-72
2022/06/13 07:17:33;;;;;;;15.30;5.43;;;;;;;;;;5016871;28;20036;-72
2022/06/13 07:19:59;;;;;;;4.88;3.63;;;;;;;;;;5016730;28;20442;-72
2022/06/13 07:22:27;;;;;;;7.18;3.67;;;;;;;;;;5017054;28;20125;-72
2022/06/13 07:24:53;;;;;;;5.60;3.47;;;;;;;;;;5016710;28;20468;-72
2022/06/13 07:27:19;;;;;;;11.38;4.32;;;;;;;;;;5016813;28;20080;-72
2022/06/13 07:29:45;;;;;;;8.02;4.03;;;;;;;;;;5017077;28;20089;-72
2022/06/13 07:32:18;;;;;;;8.80;4.00;;;;;;;;;;5016436;28;20046;-72
2022/06/13 07:34:46;;;;;;;7.18;3.50;;;;;;;;;;5016624;28;20440;-72
2022/06/13 07:37:14;;;;;;;12.02;3.80;;;;;;;;;;5016716;28;20022;-72
2022/06/13 07:39:40;;;;;;;5.35;3.50;;;;;;;;;;5016655;28;20065;-72
2022/06/13 07:42:06;;;;;;;6.20;3.55;;;;;;;;;;5016529;28;20556;-73
2022/06/13 07:44:34;;;;;;;8.07;4.90;;;;;;;;;;5016328;28;20038;-72
2022/06/13 07:47:01;;;;;;;10.88;4.07;;;;;;;;;;5016055;28;20380;-72
2022/06/13 07:49:27;;;;;;;5.85;4.10;;;;;;;;;;5016360;28;20100;-72
2022/06/13 07:51:53;;;;;;;6.93;4.07;;;;;;;;;;5016345;28;20030;-72
2022/06/13 07:54:19;;;;;;;12.80;4.38;;;;;;;;;;5016321;28;20487;-72
2022/06/13 07:56:46;;;;;;;11.65;4.30;;;;;;;;;;5016486;28;20045;-72
2022/06/13 07:59:15;;;;;;;5.53;3.72;;;;;;;;;;5016383;28;20054;-72
2022/06/13 08:01:41;;;;;;;11.82;4.50;;;;;;;;;;5016173;28;20018;-72
2022/06/13 08:04:07;;;;;;;3.58;3.13;;;;;;;;;;5016351;28;20073;-73
2022/06/13 08:06:33;;;;;;;9.55;4.78;;;;;;;;;;5016205;28;20570;-72
2022/06/13 08:08:59;;;;;;;15.13;4.82;;;;;;;;;;5016170;28;20361;-72
2022/06/13 08:11:34;;;;;;;15.77;5.20;;;;;;;;;;5016151;28;20022;-72
2022/06/13 08:14:00;;;;;;;18.92;4.10;;;;;;;;;;5016079;28;20040;-72
2022/06/13 08:16:27;;;;;;;8.68;4.78;;;;;;;;;;5015804;28;20036;-72
2022/06/13 08:18:53;;;;;;;14.60;4.80;;;;;;;;;;5016057;28;20084;-72
2022/06/13 08:21:21;;;;;;;11.15;4.28;;;;;;;;;;5015849;28;20026;-73
2022/06/13 08:23:47;;;;;;;8.35;3.90;;;;;;;;;;5015911;28;20025;-73
2022/06/13 08:26:13;;;;;;;6.93;4.18;;;;;;;;;;5015415;28;20030;-72
2022/06/13 08:28:39;;;;;;;5.47;3.33;;;;;;;;;;4998393;28;20037;-73
2022/06/13 08:31:10;;;;;;;8.35;3.90;;;;;;;;;;5015733;28;20026;-72
2022/06/13 08:33:37;;;;;;;9.60;3.75;;;;;;;;;;5014937;28;20558;-73
2022/06/13 08:36:04;;;;;;;15.43;4.72;;;;;;;;;;5015484;28;20049;-72
2022/06/13 08:38:30;;;;;;;16.88;5.82;;;;;;;;;;5015532;28;20555;-76
2022/06/13 08:40:56;;;;;;;28.15;6.22;;;;;;;;;;5015682;28;20045;-74
2022/06/13 08:43:41;;;;;;;14.93;4.57;;;;;;;;;;5015379;28;20033;-74
2022/06/13 08:46:20;;;;;;;4.85;4.00;;;;;;;;;;4997701;28;20045;-75
2022/06/13 08:48:46;;;;;;;3.55;3.10;;;;;;;;;;5015412;28;20031;-73
2022/06/13 08:51:19;;;;;;;15.68;5.85;;;;;;;;;;5015502;28;20033;-77
2022/06/13 08:53:48;;;;;;;19.27;6.03;;;;;;;;;;5015008;28;20037;-75
2022/06/13 08:56:16;;;;;;;18.08;5.15;;;;;;;;;;5015262;28;20022;-74
2022/06/13 08:58:46;;;;;;;15.73;4.60;;;;;;;;;;5015268;28;20037;-74
2022/06/13 09:01:18;;;;;;;6.55;3.63;;;;;;;;;;5015144;28;20102;-74
2022/06/13 09:03:57;;;;;;;11.30;4.30;;;;;;;;;;5015400;28;20245;-74
2022/06/13 09:06:49;;;;;;;3.50;3.15;;;;;;;;;;5015063;28;20058;-74
2022/06/13 09:09:27;;;;;;;9.75;4.57;;;;;;;;;;5010679;28;20412;-74
2022/06/13 09:12:17;;;;;;;21.33;6.30;;;;;;;;;;5015031;28;20068;-73
2022/06/13 09:14:48;;;;;;;10.85;3.63;;;;;;;;;;4916242;29;20144;-73
2022/06/13 09:17:43;;;;;;;6.45;3.95;;;;;;;;;;4916094;29;20518;-73
2022/06/13 09:20:14;;;;;;;4.65;3.88;;;;;;;;;;4859993;29;20041;-73
2022/06/13 09:22:46;;;;;;;7.10;3.92;;;;;;;;;;4860132;29;20069;-73
2022/06/13 09:25:14;;;;;;;9.80;3.90;;;;;;;;;;4859869;29;20144;-73
2022/06/13 09:27:44;;;;;;;7.68;4.15;;;;;;;;;;4860105;29;20497;-73
2022/06/13 09:30:23;;;;;;;6.68;3.85;;;;;;;;;;4859836;29;20076;-73
2022/06/13 09:32:57;;;;;;;5.70;3.78;;;;;;;;;;4859468;29;20053;-72
2022/06/13 09:35:25;;;;;;;9.48;4.35;;;;;;;;;;4859917;29;20061;-73
2022/06/13 09:38:03;;;;;;;7.90;4.28;;;;;;;;;;4859261;29;20515;-72
2022/06/13 09:40:37;;;;;;;11.82;4.75;;;;;;;;;;4859724;29;20034;-73
2022/06/13 09:43:08;;;;;;;6.47;4.55;;;;;;;;;;4859743;29;20049;-73
2022/06/13 09:45:37;;;;;;;12.05;4.05;;;;;;;;;;4859746;29;20037;-73
2022/06/13 09:48:09;;;;;;;7.53;4.72;;;;;;;;;;4859640;29;20038;-73
2022/06/13 09:50:46;;;;;;;5.53;3.45;;;;;;;;;;4863207;29;20124;-73
2022/06/13 09:53:24;;;;;;;8.40;3.95;;;;;;;;;;4934575;29;20406;-74
2022/06/13 09:56:08;;;;;;;3.80;3.38;;;;;;;;;;4940597;28;20544;-74
2022/06/13 09:58:34;;;;;;;8.98;4.85;;;;;;;;;;5033892;28;20076;-74
2022/06/13 10:01:07;;;;;;;9.20;4.13;;;;;;;;;;5033829;28;20025;-73
2022/06/13 10:03:51;;;;;;;37.35;7.93;;;;;;;;;;5033839;28;20084;-74
2022/06/13 10:06:32;;;;;;;16.33;5.05;;;;;;;;;;5033713;28;20104;-74
2022/06/13 10:09:14;;;;;;;9.07;4.93;;;;;;;;;;5033737;28;20032;-73
2022/06/13 10:11:49;;;;;;;14.50;5.03;;;;;;;;;;5033637;28;20025;-74
2022/06/13 10:14:16;;;;;;;14.43;4.97;;;;;;;;;;5033399;28;20483;-73
2022/06/13 10:16:45;;;;;;;14.02;4.63;;;;;;;;;;5033525;28;20028;-73
2022/06/13 10:19:11;;;;;;;7.32;4.15;;;;;;;;;;5033430;28;20021;-77
2022/06/13 10:21:40;;;;;;;3.60;3.17;;;;;;;;;;5033329;28;20017;-76
2022/06/13 10:24:25;;;;;;;7.93;4.93;;;;;;;;;;5033850;28;20025;-77
2022/06/13 10:27:08;;;;;;;12.23;4.82;;;;;;;;;;5033126;28;20025;-76
2022/06/13 10:29:44;;;;;;;12.35;4.20;;;;;;;;;;5032029;28;20037;-77
2022/06/13 10:32:16;;;;;;;18.63;5.03;;;;;;;;;;5033330;28;20357;-73
2022/06/13 10:34:45;;;;;;;8.27;4.55;;;;;;;;;;5016427;28;20052;-73
2022/06/13 10:37:20;;;;;;;6.07;4.47;;;;;;;;;;5013222;28;20022;-73
2022/06/13 10:39:48;;;;;;;8.60;4.18;;;;;;;;;;5013379;28;20030;-74
2022/06/13 10:42:18;;;;;;;13.95;4.93;;;;;;;;;;5013395;28;20021;-74
2022/06/13 10:44:45;;;;;;;17.95;7.68;;;;;;;;;;5013393;28;20030;-73
2022/06/13 10:47:29;;;;;;;11.77;5.63;;;;;;;;;;5013314;28;20064;-74
2022/06/13 10:49:59;;;;;;;14.05;5.70;;;;;;;;;;5012969;28;20100;-74
2022/06/13 10:52:30;;;;;;;15.43;5.15;;;;;;;;;;5013129;28;20025;-73
2022/06/13 10:55:00;;;;;;;21.27;5.80;;;;;;;;;;5013100;28;20495;-74
2022/06/13 10:57:32;;;;;;;16.10;4.97;;;;;;;;;;5013299;28;20084;-74
2022/06/13 11:00:13;;;;;;;9.32;5.15;;;;;;;;;;5012930;28;20526;-74
2022/06/13 11:02:38;;;;;;;;;;;;;;;;;;5013476;28;20066;-74
2022/06/13 11:05:07;;;;;;;10.90;4.53;;;;;;;;;;5012897;28;19912;-74
2022/06/13 11:07:35;;;;;;;17.05;6.28;;;;;;;;;;5013425;28;20419;-74
2022/06/13 11:10:02;;;;;;;29.73;7.18;;;;;;;;;;5012940;28;20037;-73
2022/06/13 11:12:32;;;;;;;14.98;4.22;;;;;;;;;;5012902;28;20463;-73
2022/06/13 11:23:52;;;;;;;17.00;5.03;;;;;;;;;;5012809;28;20040;-74
2022/06/13 11:29:03;;;;;;;29.58;5.97;;;;;;;;;;5012915;28;20057;-73
2022/06/13 11:31:29;;;;;;;14.10;5.03;;;;;;;;;;5012825;28;20030;-73
2022/06/13 11:33:56;;;;;;;9.93;4.65;;;;;;;;;;5012398;28;20496;-73
2022/06/13 11:36:27;;;;;;;11.88;4.30;;;;;;;;;;4995204;28;20026;-72
2022/06/13 11:38:59;;;;;;;14.00;4.65;;;;;;;;;;4994982;28;20022;-73
2022/06/13 11:41:40;;;;;;;14.98;6.10;;;;;;;;;;4995016;28;20380;-73
2022/06/13 11:44:06;;;;;;;8.23;4.35;;;;;;;;;;5012561;28;20022;-73
2022/06/13 11:46:32;;;;;;;12.48;4.60;;;;;;;;;;5012394;28;20149;-73
2022/06/13 11:49:06;;;;;;;5.78;4.63;;;;;;;;;;5012250;28;20467;-73
2022/06/13 11:51:48;;;;;;;50.72;7.95;;;;;;;;;;5012520;28;20112;-73
2022/06/13 11:54:21;;;;;;;9.98;3.92;;;;;;;;;;5012414;28;20050;-73
2022/06/13 11:56:47;;;;;;;16.13;4.90;;;;;;;;;;5012513;28;20050;-72
2022/06/13 11:59:15;;;;;;;15.80;4.18;;;;;;;;;;5012312;28;20073;-73
2022/06/13 12:01:41;;;;;;;7.90;4.65;;;;;;;;;;5015324;28;20022;-73
2022/06/13 12:04:13;;;;;;;10.40;4.50;;;;;;;;;;5016014;28;20092;-73
2022/06/13 12:06:43;;;;;;;14.43;4.55;;;;;;;;;;5016276;28;20026;-73
2022/06/13 12:09:43;;;;;;;13.23;4.53;;;;;;;;;;5016060;28;20030;-73
2022/06/13 12:12:09;;;;;;;11.90;4.32;;;;;;;;;;4917526;29;20044;-72
2022/06/13 12:14:38;;;;;;;8.77;4.43;;;;;;;;;;4917443;28;20380;-73
2022/06/13 12:17:04;;;;;;;8.10;3.70;;;;;;;;;;4917632;29;20130;-72
2022/06/13 12:19:34;;;;;;;14.35;4.75;;;;;;;;;;4917350;29;20036;-73
2022/06/13 12:22:16;;;;;;;13.13;4.80;;;;;;;;;;4917379;29;20036;-72
2022/06/13 12:24:48;;;;;;;5.40;4.13;;;;;;;;;;4917357;29;20574;-74
2022/06/13 12:27:14;;;;;;;9.65;5.05;;;;;;;;;;4917262;29;20479;-76
2022/06/13 12:29:54;;;;;;;24.15;5.03;;;;;;;;;;4917040;29;20062;-73
2022/06/13 12:32:24;;;;;;;21.33;5.00;;;;;;;;;;4916844;29;20040;-74
2022/06/13 12:35:09;;;;;;;12.13;5.38;;;;;;;;;;4933475;29;20051;-76
2022/06/13 12:37:56;;;;;;;7.65;4.30;;;;;;;;;;4936023;29;20031;-74
2022/06/13 12:40:28;;;;;;;7.13;4.10;;;;;;;;;;4936041;29;20032;-73
2022/06/13 12:43:12;;;;;;;7.72;3.13;;;;;;;;;;4935832;29;20032;-73
2022/06/13 12:45:53;;;;;;;19.95;5.03;;;;;;;;;;4935981;29;20034;-73
2022/06/13 12:48:19;;;;;;;;;;;;;;;;;;4996475;28;20494;-73
2022/06/13 12:51:04;;;;;;;17.67;5.53;;;;;;;;;;5015437;28;19911;-73
2022/06/13 12:53:33;;;;;;;10.40;4.55;;;;;;;;;;5015542;28;20089;-74
2022/06/13 12:56:20;;;;;;;18.95;5.65;;;;;;;;;;5015059;28;20048;-74
2022/06/13 12:58:55;;;;;;;24.13;5.13;;;;;;;;;;5015104;28;20089;-73
2022/06/13 13:01:48;;;;;;;16.25;5.03;;;;;;;;;;5015154;28;20060;-74
2022/06/13 13:04:14;;;;;;;10.55;4.53;;;;;;;;;;4991855;28;20042;-74
2022/06/13 13:06:46;;;;;;;7.88;4.13;;;;;;;;;;5014954;28;20484;-74
2022/06/13 13:09:27;;;;;;;21.25;5.03;;;;;;;;;;5014791;28;20064;-73
2022/06/13 13:12:08;;;;;;;9.07;4.30;;;;;;;;;;5013891;28;20030;-73
2022/06/13 13:14:43;;;;;;;11.77;4.70;;;;;;;;;;5014767;28;20102;-73
2022/06/13 13:17:27;;;;;;;7.57;4.85;;;;;;;;;;4997498;28;20380;-73
2022/06/13 13:20:05;;;;;;;15.63;4.20;;;;;;;;;;5013523;28;20033;-74
2022/06/13 13:22:36;;;;;;;19.02;5.38;;;;;;;;;;5014734;28;20081;-73
2022/06/13 13:25:02;;;;;;;;;;;;;;;;;;5015170;28;20169;-73
2022/06/13 13:27:31;;;;;;;7.45;4.05;;;;;;;;;;5014878;28;20364;-72
2022/06/13 13:30:04;;;;;;;31.27;6.93;;;;;;;;;;5014583;28;20030;-73
2022/06/13 13:32:33;;;;;;;28.42;5.75;;;;;;;;;;5014513;28;20049;-73
2022/06/13 13:34:59;;;;;;;24.08;6.07;;;;;;;;;;5014645;28;20057;-73
2022/06/13 13:37:30;;;;;;;14.60;4.20;;;;;;;;;;5014550;28;20024;-73
2022/06/13 13:39:56;;;;;;;7.53;4.75;;;;;;;;;;5014276;28;20030;-74
2022/06/13 13:42:40;;;;;;;10.38;4.40;;;;;;;;;;5014176;28;20493;-74
2022/06/13 13:45:16;;;;;;;6.65;4.88;;;;;;;;;;5014232;28;20048;-73
2022/06/13 13:47:46;;;;;;;15.43;4.63;;;;;;;;;;5014122;28;20026;-74
2022/06/13 13:50:16;;;;;;;22.88;5.13;;;;;;;;;;4996409;28;20492;-74
2022/06/13 13:52:45;;;;;;;8.07;3.60;;;;;;;;;;5014088;28;20480;-73
2022/06/13 13:55:15;;;;;;;18.25;4.65;;;;;;;;;;5014475;28;20026;-73
2022/06/13 13:57:45;;;;;;;10.35;4.88;;;;;;;;;;5014284;28;20022;-72
2022/06/13 14:00:22;;;;;;;12.25;4.30;;;;;;;;;;5014096;28;20484;-73
2022/06/13 14:02:52;;;;;;;11.90;4.90;;;;;;;;;;5014029;28;20379;-73
2022/06/13 14:05:38;;;;;;;8.70;4.68;;;;;;;;;;5013695;28;20555;-73
2022/06/13 14:08:04;;;;;;;20.48;4.47;;;;;;;;;;5014226;28;20034;-73
2022/06/13 14:10:32;;;;;;;9.05;5.57;;;;;;;;;;5013970;28;20112;-73
2022/06/13 14:13:05;;;;;;;11.55;4.65;;;;;;;;;;5013584;28;20162;-72
2022/06/13 14:15:55;;;;;;;6.47;4.32;;;;;;;;;;5013749;28;20025;-73
2022/06/13 14:18:26;;;;;;;10.80;4.80;;;;;;;;;;4915300;29;20028;-73
2022/06/13 14:20:53;;;;;;;6.65;4.65;;;;;;;;;;4915255;29;20084;-73
2022/06/13 14:23:21;;;;;;;20.33;4.75;;;;;;;;;;4915008;29;20107;-73
2022/06/13 14:25:50;;;;;;;13.93;4.47;;;;;;;;;;4915160;29;20036;-72
2022/06/13 14:28:17;;;;;;;7.90;3.40;;;;;;;;;;4915052;29;20432;-73
2022/06/13 14:31:04;;;;;;;5.57;3.67;;;;;;;;;;4915152;29;20107;-73
2022/06/13 14:36:49;;;;;;;40.85;7.50;;;;;;;;;;4934164;29;20461;-72
2022/06/13 14:39:36;;;;;;;11.48;5.93;;;;;;;;;;4934155;29;20450;-72
2022/06/13 14:42:02;;;;;;;31.35;5.60;;;;;;;;;;4930480;29;20605;-73
2022/06/13 14:44:34;;;;;;;7.53;4.35;;;;;;;;;;4933818;29;20038;-72
2022/06/13 14:47:03;;;;;;;15.85;5.50;;;;;;;;;;4933477;29;20031;-71
2022/06/13 14:49:41;;;;;;;12.73;5.40;;;;;;;;;;4933824;29;20040;-73
2022/06/13 14:52:12;;;;;;;12.70;4.47;;;;;;;;;;4933632;29;20617;-72
2022/06/13 14:54:57;;;;;;;9.57;5.30;;;;;;;;;;4951520;28;20125;-73
2022/06/13 14:57:32;;;;;;;18.05;5.25;;;;;;;;;;5013180;28;20054;-73
2022/06/13 15:00:04;;;;;;;54.53;7.43;;;;;;;;;;4995890;28;20450;-73
2022/06/13 15:02:54;;;;;;;16.88;4.90;;;;;;;;;;5013199;28;20482;-73
2022/06/13 15:05:21;;;;;;;14.50;5.05;;;;;;;;;;5005180;28;20050;-73
2022/06/13 15:07:57;;;;;;;19.33;5.40;;;;;;;;;;5013535;28;20026;-74
2022/06/13 15:10:29;;;;;;;10.15;4.40;;;;;;;;;;5012967;28;20026;-72
2022/06/13 15:12:58;;;;;;;29.80;6.30;;;;;;;;;;5013220;28;20030;-73
2022/06/13 15:15:32;;;;;;;11.07;4.82;;;;;;;;;;5013256;28;20034;-73
2022/06/13 15:17:58;;;;;;;16.40;4.82;;;;;;;;;;5012965;28;20558;-74
2022/06/13 15:20:30;;;;;;;8.73;4.90;;;;;;;;;;5012720;28;20085;-74
2022/06/13 15:22:59;;;;;;;11.25;5.05;;;;;;;;;;5012814;28;20507;-73
2022/06/13 15:25:35;;;;;;;10.43;5.18;;;;;;;;;;5012783;28;20034;-73